Terminal Aerodrome Forecast
Issued by NWS

Home | Current Version | Previous Version | Text Only | Print | Product List | Glossary On
Versions: 1 2 3 4 5 6 7 8 9 10 11 12
000
FTUS45 KREV 242320
TAFTRK
TAF
KTRK 242320Z 2500/2524 VRB03KT P6SM FEW180
     FM251000 00000KT 6SM BCFG FEW002 FEW180
     FM251600 VRB04KT P6SM FEW180
     FM251900 08007KT P6SM FEW100 SCT180=

USA.gov is the U.S. government's official web portal to all federal, state and local government web resources and services.